createdAt,value
2018-02-21T00:00:23.081Z,0.02
2018-02-21T00:02:50.628Z,0.04
2018-02-21T00:05:18.168Z,0.01
2018-02-21T00:07:45.706Z,-0.02
2018-02-21T00:10:13.253Z,-0.01
2018-02-21T00:12:40.792Z,-0.04
2018-02-21T00:15:08.326Z,-0.08
2018-02-21T00:17:35.876Z,-0.09
2018-02-21T00:20:03.420Z,-0.10
2018-02-21T00:22:31.069Z,-0.11
2018-02-21T00:24:58.618Z,-0.14
2018-02-21T00:27:26.163Z,-0.15
2018-02-21T00:29:53.723Z,-0.14
2018-02-21T00:32:21.274Z,-0.16
2018-02-21T00:34:48.817Z,-0.13
2018-02-21T00:37:16.360Z,-0.19
2018-02-21T00:39:43.909Z,-0.20
2018-02-21T00:42:11.459Z,-0.22
2018-02-21T00:44:39.000Z,-0.25
2018-02-21T00:47:06.550Z,-0.22
2018-02-21T00:49:34.093Z,-0.27
2018-02-21T02:13:58.641Z,-0.73
2018-02-21T02:16:26.188Z,-0.73
2018-02-21T02:18:53.732Z,-0.69
2018-02-21T02:21:21.359Z,-0.73
2018-02-21T02:23:48.904Z,-0.70
2018-02-21T02:26:16.472Z,-0.74
2018-02-21T02:28:44.019Z,-0.74
2018-02-21T02:31:11.569Z,-0.70
2018-02-21T02:33:39.108Z,-0.71
2018-02-21T02:36:06.721Z,-0.73
2018-02-21T02:38:40.218Z,-0.74
2018-02-21T02:41:07.798Z,-0.75
2018-02-21T02:43:35.374Z,-0.74
2018-02-21T02:46:03.001Z,-0.75
2018-02-21T02:48:30.548Z,-0.74
2018-02-21T02:50:58.090Z,-0.73
2018-02-21T02:53:25.688Z,-0.78
2018-02-21T02:55:53.234Z,-0.80
2018-02-21T02:58:20.791Z,-0.77
2018-02-21T03:00:48.329Z,-0.81
2018-02-21T03:03:15.874Z,-0.81
2018-02-21T03:05:43.420Z,-0.79
2018-02-21T03:08:10.973Z,-0.81
2018-02-21T03:10:38.533Z,-0.80
2018-02-21T03:13:06.105Z,-0.80
2018-02-21T03:15:33.733Z,-0.75
2018-02-21T03:18:01.291Z,-0.81
2018-02-21T03:20:28.844Z,-0.83
2018-02-21T03:22:56.484Z,-0.83
2018-02-21T03:25:24.029Z,-0.80
2018-02-21T03:27:51.569Z,-0.81
2018-02-21T03:30:19.136Z,-0.84
2018-02-21T03:32:46.714Z,-0.84
2018-02-21T03:35:14.256Z,-0.84
2018-02-21T03:37:41.870Z,-0.84
2018-02-21T03:40:09.416Z,-0.85
2018-02-21T03:42:36.960Z,-0.84
2018-02-21T03:45:04.528Z,-0.84
2018-02-21T03:47:32.068Z,-0.83
2018-02-21T03:49:59.625Z,-0.87
2018-02-21T03:52:27.188Z,-0.82
2018-02-21T03:54:54.737Z,-0.85
2018-02-21T03:57:22.285Z,-0.84
2018-02-21T03:59:49.858Z,-0.80
2018-02-21T04:02:17.415Z,-0.78
2018-02-21T04:04:45.025Z,-0.79
2018-02-21T04:07:12.695Z,-0.77
2018-02-21T04:09:40.358Z,-0.81
2018-02-21T04:12:07.901Z,-0.81
2018-02-21T04:14:35.449Z,-0.79
2018-02-21T04:17:03.141Z,-0.78
2018-02-21T04:19:30.684Z,-0.76
2018-02-21T04:21:58.226Z,-0.79
2018-02-21T04:24:25.784Z,-0.77
2018-02-21T04:26:53.387Z,-0.83
2018-02-21T04:29:21.037Z,-0.83
2018-02-21T04:31:48.701Z,-0.86
2018-02-21T04:34:16.361Z,-0.83
2018-02-21T04:36:43.906Z,-0.82
2018-02-21T04:39:11.481Z,-0.79
2018-02-21T04:41:39.027Z,-0.75
2018-02-21T04:44:06.575Z,-0.80
2018-02-21T04:46:34.113Z,-0.77
2018-02-21T04:49:01.680Z,-0.78
2018-02-21T04:51:29.252Z,-0.82
2018-02-21T04:53:56.808Z,-0.84
2018-02-21T04:56:24.367Z,-0.83
2018-02-21T05:01:58.308Z,-0.85
2018-02-21T05:04:25.847Z,-0.87
2018-02-21T05:06:53.413Z,-0.85
2018-02-21T05:09:20.982Z,-0.84
2018-02-21T05:11:48.524Z,-0.88
2018-02-21T05:14:16.150Z,-0.87
2018-02-21T05:16:43.820Z,-0.90
2018-02-21T05:19:11.473Z,-0.91
2018-02-21T05:21:39.038Z,-0.94
2018-02-21T05:24:06.698Z,-0.89
2018-02-21T05:26:34.288Z,-0.94
2018-02-21T05:29:01.921Z,-0.95
2018-02-21T05:31:29.477Z,-0.97
2018-02-21T05:33:57.116Z,-0.94
2018-02-21T05:36:24.674Z,-0.97
2018-02-21T05:38:52.234Z,-0.97
2018-02-21T05:41:19.782Z,-0.99
2018-02-21T05:43:47.338Z,-1.03
2018-02-21T05:46:14.905Z,-1.05
2018-02-21T05:48:42.451Z,-1.09
2018-02-21T05:51:10.051Z,-1.08
2018-02-21T05:53:37.592Z,-1.10
2018-02-21T05:56:05.141Z,-1.08
2018-02-21T05:58:32.728Z,-1.11
2018-02-21T06:01:00.396Z,-1.14
2018-02-21T06:03:28.063Z,-1.11
2018-02-21T06:05:55.726Z,-1.07
2018-02-21T06:08:23.280Z,-1.05
2018-02-21T06:10:50.828Z,-1.04
2018-02-21T06:13:18.372Z,-1.09
2018-02-21T06:15:45.933Z,-1.15
2018-02-21T06:18:13.499Z,-1.11
2018-02-21T06:20:41.058Z,-1.15
2018-02-21T06:23:08.628Z,-1.08
2018-02-21T06:25:36.167Z,-1.01
2018-02-21T06:28:03.713Z,-0.97
2018-02-21T06:30:31.308Z,-0.94
2018-02-21T06:32:58.847Z,-0.87
2018-02-21T06:35:26.397Z,-0.75
2018-02-21T06:37:54.003Z,-0.74
2018-02-21T06:40:21.658Z,-0.67
2018-02-21T06:42:49.325Z,-0.69
2018-02-21T06:45:16.869Z,-0.67
2018-02-21T06:47:44.446Z,-0.64
2018-02-21T06:50:12.117Z,-0.58
2018-02-21T06:52:39.672Z,-0.46
2018-02-21T06:55:07.336Z,-0.44
2018-02-21T06:57:35.005Z,-0.30
2018-02-21T07:00:02.562Z,-0.17
2018-02-21T07:02:35.078Z,0.05
2018-02-21T07:05:02.613Z,0.11
2018-02-21T07:07:30.239Z,0.44
2018-02-21T07:09:57.814Z,0.47
2018-02-21T07:12:25.486Z,0.52
2018-02-21T07:14:53.037Z,0.66
2018-02-21T07:17:20.596Z,0.79
2018-02-21T07:19:48.140Z,0.86
2018-02-21T07:22:15.694Z,0.98
2018-02-21T07:24:43.277Z,1.13
2018-02-21T07:27:10.934Z,1.42
2018-02-21T07:29:38.471Z,1.48
2018-02-21T07:32:06.036Z,1.78
2018-02-21T07:34:33.595Z,1.90
2018-02-21T07:37:01.136Z,1.89
2018-02-21T07:39:28.696Z,1.94
2018-02-21T07:41:56.311Z,2.17
2018-02-21T07:44:23.847Z,1.99
2018-02-21T07:46:51.389Z,2.16
2018-02-21T07:49:19.066Z,1.79
2018-02-21T07:51:46.676Z,2.24
2018-02-21T07:54:14.248Z,2.49
2018-02-21T07:56:41.816Z,3.03
2018-02-21T07:59:09.370Z,3.30
2018-02-21T08:01:36.909Z,3.05
2018-02-21T08:04:04.471Z,4.01
2018-02-21T08:06:32.071Z,3.83
2018-02-21T08:08:59.600Z,3.88
2018-02-21T08:11:27.202Z,4.30
2018-02-21T08:13:54.766Z,5.14
2018-02-21T08:16:22.363Z,5.15
2018-02-21T08:18:49.922Z,4.73
2018-02-21T08:21:17.480Z,5.42
2018-02-21T08:23:45.043Z,4.89
2018-02-21T08:26:12.584Z,5.14
2018-02-21T08:28:40.136Z,5.22
2018-02-21T08:31:07.697Z,5.42
2018-02-21T08:33:35.246Z,5.51
2018-02-21T08:36:02.824Z,6.01
2018-02-21T08:38:30.401Z,6.24
2018-02-21T08:40:57.968Z,6.72
2018-02-21T08:43:25.591Z,7.24
2018-02-21T08:45:53.144Z,7.09
2018-02-21T08:48:20.820Z,7.30
2018-02-21T09:04:27.311Z,7.87
2018-02-21T09:06:54.859Z,8.04
2018-02-21T09:09:32.754Z,8.94
2018-02-21T09:12:00.389Z,8.44
2018-02-21T09:19:11.574Z,9.78
2018-02-21T09:21:39.181Z,10.84
2018-02-21T09:24:06.729Z,9.95
2018-02-21T09:26:34.294Z,9.55
2018-02-21T09:29:01.844Z,10.52
2018-02-21T09:31:29.384Z,10.34
2018-02-21T09:33:56.996Z,11.20
2018-02-21T09:36:24.564Z,11.15
2018-02-21T09:38:52.127Z,11.19
2018-02-21T09:41:19.822Z,10.53
2018-02-21T09:43:47.379Z,11.51
2018-02-21T09:46:14.941Z,11.81
2018-02-21T09:48:42.532Z,11.85
2018-02-21T09:51:10.196Z,11.67
2018-02-21T09:53:37.751Z,10.71
2018-02-21T09:56:05.316Z,11.11
2018-02-21T09:58:32.875Z,9.38
2018-02-21T10:01:00.489Z,10.75
2018-02-21T10:03:28.033Z,13.15
2018-02-21T10:05:55.582Z,11.26
2018-02-21T10:08:23.137Z,13.85
2018-02-21T10:10:50.697Z,13.93
2018-02-21T10:13:18.289Z,14.16
2018-02-21T10:15:45.866Z,11.80
2018-02-21T10:18:13.505Z,11.66
2018-02-21T10:20:41.173Z,10.91
2018-02-21T10:23:08.716Z,10.85
2018-02-21T10:25:36.282Z,10.05
2018-02-21T10:28:03.946Z,9.51
2018-02-21T10:30:31.496Z,8.12
2018-02-21T10:32:59.087Z,7.63
2018-02-21T10:35:26.634Z,7.85
2018-02-21T10:37:54.911Z,8.20
2018-02-21T10:40:22.461Z,7.43
2018-02-21T10:42:50.004Z,7.60
2018-02-21T10:45:17.551Z,7.52
2018-02-21T10:47:45.089Z,7.18
2018-02-21T10:50:13.728Z,6.65
2018-02-21T10:52:44.218Z,6.35
2018-02-21T10:55:11.793Z,6.77
2018-02-21T10:57:39.333Z,6.18
2018-02-21T11:00:06.877Z,6.51
2018-02-21T11:02:34.424Z,6.38
2018-02-21T11:05:01.968Z,7.37
2018-02-21T11:07:29.634Z,7.60
2018-02-21T11:09:58.070Z,7.55
2018-02-21T11:12:26.689Z,6.83
2018-02-21T11:14:54.249Z,6.15
2018-02-21T11:17:21.817Z,6.57
2018-02-21T11:19:49.373Z,6.53
2018-02-21T11:22:16.927Z,6.75
2018-02-21T11:24:44.481Z,6.39
2018-02-21T11:27:12.031Z,6.01
2018-02-21T11:29:39.578Z,5.49
2018-02-21T11:32:07.149Z,5.26
2018-02-21T11:34:34.780Z,5.07
2018-02-21T11:37:02.337Z,5.59
2018-02-21T11:39:29.876Z,5.62
2018-02-21T11:41:57.770Z,5.21
2018-02-21T11:44:25.324Z,5.13
2018-02-21T11:46:52.867Z,5.16
2018-02-21T11:49:20.415Z,5.38
2018-02-21T11:51:47.969Z,5.45
2018-02-21T11:54:15.551Z,5.03
2018-02-21T11:56:43.091Z,5.37
2018-02-21T11:59:10.641Z,5.42
2018-02-21T12:01:38.185Z,4.75
2018-02-21T12:04:05.724Z,5.18
2018-02-21T12:06:33.272Z,4.99
2018-02-21T12:09:00.825Z,5.19
2018-02-21T12:11:28.373Z,5.19
2018-02-21T12:13:55.944Z,5.27
2018-02-21T12:16:23.495Z,5.41
2018-02-21T12:18:51.037Z,5.23
2018-02-21T12:21:18.568Z,5.31
2018-02-21T12:23:46.106Z,5.52
2018-02-21T12:26:13.660Z,5.35
2018-02-21T12:28:41.203Z,5.33
2018-02-21T12:31:08.740Z,5.49
2018-02-21T12:33:36.296Z,5.56
2018-02-21T12:36:03.910Z,5.33
2018-02-21T12:38:31.474Z,5.30
2018-02-21T12:41:04.573Z,5.38
2018-02-21T12:43:32.112Z,5.10
2018-02-21T12:45:59.663Z,5.28
2018-02-21T12:48:27.209Z,5.58
2018-02-21T12:50:54.762Z,5.36
2018-02-21T12:53:22.308Z,5.43
2018-02-21T12:55:49.858Z,5.37
2018-02-21T12:58:17.399Z,5.20
2018-02-21T13:00:44.969Z,5.28
2018-02-21T13:03:12.522Z,5.17
2018-02-21T13:05:40.068Z,5.14
2018-02-21T13:08:07.611Z,5.34
2018-02-21T13:10:35.181Z,5.23
2018-02-21T13:13:02.828Z,5.45
2018-02-21T13:15:30.490Z,5.23
2018-02-21T13:17:58.159Z,5.26
2018-02-21T13:20:25.705Z,4.91
2018-02-21T13:22:53.265Z,5.16
2018-02-21T13:25:20.807Z,4.79
2018-02-21T13:27:48.356Z,4.95
2018-02-21T13:30:15.957Z,5.02
2018-02-21T13:32:43.502Z,4.90
2018-02-21T13:35:11.052Z,4.98
2018-02-21T13:37:38.617Z,5.07
2018-02-21T13:40:06.154Z,5.02
2018-02-21T13:42:33.715Z,5.13
2018-02-21T13:45:01.257Z,5.49
2018-02-21T13:47:28.819Z,5.05
2018-02-21T13:49:56.367Z,5.46
2018-02-21T13:52:23.908Z,5.35
2018-02-21T13:54:51.453Z,5.31
2018-02-21T13:57:21.091Z,5.17
2018-02-21T13:59:48.721Z,5.27
2018-02-21T14:02:16.268Z,5.40
2018-02-21T14:04:43.814Z,5.33
2018-02-21T14:07:11.350Z,5.18
2018-02-21T14:09:38.957Z,5.21
2018-02-21T14:12:06.494Z,5.14
2018-02-21T14:14:34.039Z,5.15
2018-02-21T14:17:01.649Z,5.05
2018-02-21T14:19:29.309Z,5.24
2018-02-21T14:21:56.972Z,5.46
2018-02-21T14:24:24.548Z,5.63
2018-02-21T14:26:52.095Z,5.39
2018-02-21T14:29:19.638Z,5.55
2018-02-21T14:31:47.179Z,5.44
2018-02-21T14:34:14.722Z,5.44
2018-02-21T14:36:42.262Z,5.54
2018-02-21T14:39:09.804Z,5.48
2018-02-21T14:41:37.338Z,5.49
2018-02-21T14:44:04.884Z,5.20
2018-02-21T14:46:32.422Z,5.04
2018-02-21T14:48:59.961Z,4.85
2018-02-21T14:51:27.515Z,4.72
2018-02-21T14:53:55.066Z,4.67
2018-02-21T14:56:22.606Z,4.77
2018-02-21T14:58:50.150Z,4.70
2018-02-21T15:01:17.714Z,4.69
2018-02-21T15:03:45.262Z,4.62
2018-02-21T15:06:12.817Z,4.64
2018-02-21T15:08:40.409Z,4.40
2018-02-21T15:11:07.976Z,4.35
2018-02-21T15:13:35.616Z,4.30
2018-02-21T15:16:03.166Z,4.28
2018-02-21T15:18:30.727Z,4.16
2018-02-21T15:20:58.264Z,4.22
2018-02-21T15:23:25.824Z,4.22
2018-02-21T15:25:53.362Z,4.23
2018-02-21T15:28:20.900Z,4.19
2018-02-21T15:30:48.436Z,4.12
2018-02-21T15:33:15.993Z,4.09
2018-02-21T15:35:43.542Z,3.99
2018-02-21T15:38:11.221Z,3.98
2018-02-21T15:40:38.770Z,3.98
2018-02-21T15:43:06.312Z,3.90
2018-02-21T15:45:33.860Z,3.86
2018-02-21T15:48:01.399Z,3.85
2018-02-21T15:50:28.945Z,3.84
2018-02-21T15:52:56.513Z,3.91
2018-02-21T15:55:24.146Z,3.81
2018-02-21T15:57:52.164Z,3.82
2018-02-21T16:00:24.135Z,3.76
2018-02-21T16:02:51.682Z,3.76
2018-02-21T16:05:19.229Z,3.73
2018-02-21T16:07:46.765Z,3.64
2018-02-21T16:10:14.417Z,3.62
2018-02-21T16:12:41.963Z,3.54
2018-02-21T16:15:09.562Z,3.50
2018-02-21T16:17:37.148Z,3.55
2018-02-21T16:20:04.690Z,3.49
2018-02-21T16:22:32.237Z,3.42
2018-02-21T16:24:59.798Z,3.35
2018-02-21T16:27:27.345Z,3.38
2018-02-21T16:29:54.886Z,3.27
2018-02-21T16:32:22.471Z,3.26
2018-02-21T16:34:50.023Z,3.24
2018-02-21T16:37:17.566Z,3.25
2018-02-21T16:39:45.110Z,3.40
2018-02-21T16:42:12.697Z,3.51
2018-02-21T16:44:40.349Z,3.25
2018-02-21T16:47:07.898Z,3.18
2018-02-21T16:49:35.440Z,3.12
2018-02-21T16:52:03.004Z,3.16
2018-02-21T16:54:30.548Z,3.16
2018-02-21T16:56:58.186Z,3.11
2018-02-21T16:59:25.916Z,3.04
2018-02-21T17:01:53.468Z,3.02
2018-02-21T17:04:21.046Z,3.01
2018-02-21T17:06:48.594Z,2.97
2018-02-21T17:09:16.140Z,2.96
2018-02-21T17:11:43.714Z,2.97
2018-02-21T17:14:11.384Z,2.89
2018-02-21T17:16:38.930Z,2.93
2018-02-21T17:19:06.496Z,2.88
2018-02-21T17:21:34.044Z,2.88
2018-02-21T17:24:01.588Z,2.90
2018-02-21T17:26:29.192Z,2.88
2018-02-21T17:28:56.735Z,2.85
2018-02-21T17:31:24.305Z,2.85
2018-02-21T17:33:51.857Z,2.84
2018-02-21T17:36:19.433Z,2.83
2018-02-21T17:38:46.977Z,2.82
2018-02-21T17:41:20.237Z,2.88
2018-02-21T17:43:47.769Z,2.86
2018-02-21T17:46:15.344Z,2.84
2018-02-21T17:48:42.898Z,2.81
2018-02-21T17:51:10.520Z,2.79
2018-02-21T17:53:38.081Z,2.74
2018-02-21T17:56:05.640Z,2.75
2018-02-21T17:58:33.294Z,2.73
2018-02-21T18:01:00.841Z,2.74
2018-02-21T18:03:28.389Z,2.74
2018-02-21T18:05:55.980Z,2.76
2018-02-21T18:08:23.528Z,2.73
2018-02-21T18:10:51.075Z,2.70
2018-02-21T18:13:18.634Z,2.67
2018-02-21T18:15:46.194Z,2.71
2018-02-21T18:18:13.732Z,2.72
2018-02-21T18:20:41.275Z,2.74
2018-02-21T18:23:08.929Z,2.71
2018-02-21T18:25:36.440Z,2.68
2018-02-21T18:28:04.120Z,2.68
2018-02-21T18:30:31.677Z,2.63
2018-02-21T18:33:00.421Z,2.63
2018-02-21T18:35:27.997Z,2.64
2018-02-21T18:37:55.601Z,2.62
2018-02-21T18:40:23.155Z,2.61
2018-02-21T18:42:50.700Z,2.62
2018-02-21T18:45:18.239Z,2.60
2018-02-21T18:47:45.777Z,2.59
2018-02-21T18:50:13.407Z,2.60
2018-02-21T18:52:40.945Z,2.59
2018-02-21T18:55:08.494Z,2.53
2018-02-21T18:57:36.038Z,2.53
2018-02-21T19:00:03.626Z,2.52
2018-02-21T19:02:31.196Z,2.52
2018-02-21T19:04:58.733Z,2.47
2018-02-21T19:07:26.330Z,2.47
2018-02-21T19:09:53.874Z,2.45
2018-02-21T19:12:21.412Z,2.44
2018-02-21T19:14:48.953Z,2.44
2018-02-21T19:17:16.494Z,2.43
2018-02-21T19:19:44.156Z,2.40
2018-02-21T19:22:11.609Z,2.38
2018-02-21T19:24:39.242Z,2.39
2018-02-21T19:27:06.789Z,2.37
2018-02-21T19:29:34.333Z,2.38
2018-02-21T19:32:01.880Z,2.38
2018-02-21T19:34:29.424Z,2.38
2018-02-21T19:36:57.041Z,2.36
2018-02-21T19:39:24.589Z,2.37
2018-02-21T19:41:52.709Z,2.38
2018-02-21T19:44:20.257Z,2.39
2018-02-21T19:46:47.820Z,2.49
2018-02-21T19:49:15.448Z,2.43
2018-02-21T19:51:42.985Z,2.35
2018-02-21T19:54:10.529Z,2.34
2018-02-21T19:56:38.072Z,2.31
2018-02-21T19:59:05.628Z,2.32
2018-02-21T20:01:33.174Z,2.30
2018-02-21T20:04:00.712Z,2.25
2018-02-21T20:06:28.263Z,2.23
2018-02-21T20:08:55.804Z,2.28
2018-02-21T20:11:24.144Z,2.25
2018-02-21T20:13:51.730Z,2.21
2018-02-21T20:16:19.277Z,2.22
2018-02-21T20:18:46.841Z,2.21
2018-02-21T20:21:14.445Z,2.16
2018-02-21T20:23:41.995Z,2.13
2018-02-21T20:26:09.537Z,2.11
2018-02-21T20:28:37.083Z,2.09
2018-02-21T20:31:04.665Z,2.10
2018-02-21T20:33:32.219Z,2.05
2018-02-21T20:35:59.809Z,2.08
2018-02-21T20:38:27.441Z,2.04
2018-02-21T20:40:54.993Z,2.00
2018-02-21T20:43:22.598Z,1.99
2018-02-21T20:45:50.255Z,2.02
2018-02-21T20:48:17.804Z,1.98
2018-02-21T20:50:45.377Z,1.94
2018-02-21T20:53:12.923Z,1.97
2018-02-21T20:55:40.467Z,1.94
2018-02-21T20:58:08.055Z,1.96
2018-02-21T21:00:35.615Z,1.94
2018-02-21T21:03:03.285Z,1.91
2018-02-21T21:05:30.946Z,1.87
2018-02-21T21:07:58.488Z,1.86
2018-02-21T21:10:26.061Z,1.86
2018-02-21T21:12:53.608Z,1.82
2018-02-21T21:15:21.180Z,1.87
2018-02-21T21:17:48.831Z,1.83
2018-02-21T21:20:16.378Z,1.80
2018-02-21T21:22:43.970Z,1.82
2018-02-21T21:25:11.638Z,1.78
2018-02-21T21:27:39.180Z,1.73
2018-02-21T21:30:06.727Z,1.73
2018-02-21T21:32:34.287Z,1.72
2018-02-21T21:35:01.849Z,1.72
2018-02-21T21:37:29.385Z,1.70
2018-02-21T21:39:56.924Z,1.72
2018-02-21T21:42:24.549Z,1.75
2018-02-21T21:44:52.203Z,1.72
2018-02-21T21:47:19.750Z,1.66
2018-02-21T21:49:47.315Z,1.69
2018-02-21T21:52:14.861Z,1.62
2018-02-21T21:54:42.444Z,1.63
2018-02-21T21:57:09.989Z,1.58
2018-02-21T21:59:37.550Z,1.57
2018-02-21T22:02:05.093Z,1.62
2018-02-21T22:04:32.633Z,1.57
2018-02-21T22:07:00.177Z,1.48
2018-02-21T22:09:27.725Z,1.48
2018-02-21T22:11:55.364Z,1.51
2018-02-21T22:14:22.902Z,1.44
2018-02-21T22:16:50.453Z,1.46
2018-02-21T22:19:18.010Z,1.42
2018-02-21T22:21:45.590Z,1.35
2018-02-21T22:24:13.133Z,1.43
2018-02-21T22:26:40.694Z,1.40
2018-02-21T22:29:08.263Z,1.41
2018-02-21T22:31:35.814Z,1.43
2018-02-21T22:34:03.349Z,1.41
2018-02-21T22:36:30.894Z,1.37
2018-02-21T22:38:58.494Z,1.31
2018-02-21T22:41:26.092Z,1.34
2018-02-21T22:43:53.636Z,1.27
2018-02-21T22:46:21.207Z,1.23
2018-02-21T22:48:48.744Z,1.16
2018-02-21T22:51:16.289Z,1.27
2018-02-21T22:53:43.831Z,1.15
2018-02-21T22:56:11.374Z,1.11
2018-02-21T22:58:39.001Z,1.06
2018-02-21T23:01:06.552Z,1.04
2018-02-21T23:03:34.088Z,1.05
2018-02-21T23:06:01.631Z,1.01
2018-02-21T23:08:29.249Z,0.99
2018-02-21T23:10:56.916Z,0.90
2018-02-21T23:13:24.458Z,0.86
2018-02-21T23:15:52.007Z,0.90
2018-02-21T23:18:19.556Z,0.80
2018-02-21T23:20:47.148Z,0.81
2018-02-21T23:23:14.684Z,0.78
2018-02-21T23:25:42.221Z,0.75
2018-02-21T23:28:09.766Z,0.80
2018-02-21T23:30:37.318Z,0.69
2018-02-21T23:33:04.868Z,0.70
2018-02-21T23:35:32.414Z,0.67
2018-02-21T23:37:59.961Z,0.66
2018-02-21T23:40:27.500Z,0.63
2018-02-21T23:42:55.051Z,0.56
2018-02-21T23:45:22.609Z,0.52
2018-02-21T23:47:50.204Z,0.53
2018-02-21T23:50:17.742Z,0.52
2018-02-21T23:52:45.290Z,0.55
2018-02-21T23:55:12.825Z,0.55
2018-02-21T23:57:40.404Z,0.57
